createdAt,value
2023-02-09T00:01:24.243Z,6.00
2023-02-09T00:03:52.933Z,5.77
2023-02-09T00:06:23.634Z,7.33
2023-02-09T00:08:51.896Z,6.43
2023-02-09T00:11:21.931Z,6.43
2023-02-09T00:13:48.843Z,6.00
2023-02-09T00:16:16.687Z,6.07
2023-02-09T00:18:44.511Z,5.33
2023-02-09T00:21:12.848Z,5.83
2023-02-09T00:23:42.722Z,5.70
2023-02-09T00:26:12.315Z,5.70
2023-02-09T00:28:40.117Z,6.43
2023-02-09T00:31:09.012Z,6.10
2023-02-09T00:33:37.442Z,5.53
2023-02-09T00:36:06.725Z,5.90
2023-02-09T00:38:35.468Z,5.70
2023-02-09T00:41:05.546Z,5.43
2023-02-09T00:43:34.050Z,5.33
2023-02-09T00:46:01.944Z,5.30
2023-02-09T00:48:29.947Z,5.33
2023-02-09T00:50:57.773Z,5.50
2023-02-09T00:53:25.628Z,6.10
2023-02-09T00:55:53.570Z,5.90
2023-02-09T00:58:22.701Z,5.17
2023-02-09T01:00:50.566Z,5.80
2023-02-09T01:03:18.538Z,5.20
2023-02-09T01:05:46.297Z,5.93
2023-02-09T01:08:14.085Z,5.10
2023-02-09T01:10:42.030Z,5.50
2023-02-09T01:13:09.843Z,5.60
2023-02-09T01:15:41.734Z,4.63
2023-02-09T01:18:09.547Z,5.50
2023-02-09T01:20:37.337Z,5.27
2023-02-09T01:23:05.126Z,5.30
2023-02-09T01:25:32.910Z,4.97
2023-02-09T01:28:00.780Z,5.20
2023-02-09T01:30:28.983Z,4.20
2023-02-09T01:32:58.191Z,5.53
2023-02-09T01:35:25.987Z,4.57
2023-02-09T01:37:53.758Z,5.40
2023-02-09T01:40:21.555Z,5.70
2023-02-09T01:42:49.349Z,5.83
2023-02-09T01:45:36.810Z,5.03
2023-02-09T01:48:06.145Z,5.50
2023-02-09T01:50:38.257Z,5.07
2023-02-09T01:53:07.361Z,4.83
2023-02-09T01:55:38.640Z,4.53
2023-02-09T01:58:11.462Z,4.77
2023-02-09T02:00:39.457Z,4.90
2023-02-09T02:03:12.311Z,5.10
2023-02-09T02:05:43.178Z,5.77
2023-02-09T02:08:18.049Z,4.67
2023-02-09T02:10:46.309Z,5.43
2023-02-09T02:13:14.307Z,5.07
2023-02-09T02:15:52.256Z,5.53
2023-02-09T02:18:31.497Z,5.57
2023-02-09T02:21:36.004Z,5.20
2023-02-09T02:24:37.904Z,5.13
2023-02-09T02:27:08.126Z,4.37
2023-02-09T02:30:03.685Z,5.27
2023-02-09T02:32:45.025Z,5.70
2023-02-09T02:35:22.204Z,5.03
2023-02-09T02:37:58.908Z,5.20
2023-02-09T02:40:37.089Z,4.63
2023-02-09T02:43:13.402Z,4.73
2023-02-09T02:45:48.363Z,4.83
2023-02-09T02:48:25.002Z,4.30
2023-02-09T02:50:56.753Z,4.20
2023-02-09T02:53:28.995Z,4.40
2023-02-09T02:56:02.337Z,4.43
2023-02-09T02:58:32.023Z,3.97
2023-02-09T03:01:02.826Z,4.27
2023-02-09T03:03:34.760Z,3.87
2023-02-09T03:06:04.731Z,3.97
2023-02-09T03:08:47.923Z,4.50
2023-02-09T03:11:15.905Z,3.67
2023-02-09T03:13:57.849Z,4.50
2023-02-09T03:16:33.080Z,3.83
2023-02-09T03:19:15.184Z,3.30
2023-02-09T03:21:50.134Z,4.03
2023-02-09T03:24:28.293Z,4.30
2023-02-09T03:27:03.160Z,3.50
2023-02-09T03:29:32.028Z,3.50
2023-02-09T03:31:59.890Z,4.67
2023-02-09T03:34:29.345Z,4.20
2023-02-09T03:36:58.599Z,4.17
2023-02-09T03:39:26.389Z,4.10
2023-02-09T03:41:54.137Z,4.40
2023-02-09T03:44:27.853Z,4.10
2023-02-09T03:46:57.296Z,3.90
2023-02-09T03:49:27.593Z,3.87
2023-02-09T03:51:56.756Z,3.73
2023-02-09T03:54:24.546Z,4.10
2023-02-09T03:56:52.308Z,3.53
2023-02-09T03:59:20.803Z,4.57
2023-02-09T04:01:48.650Z,4.23
2023-02-09T04:04:16.420Z,4.20
2023-02-09T04:06:44.359Z,4.20
2023-02-09T04:09:14.033Z,3.87
2023-02-09T04:11:41.955Z,3.77
2023-02-09T04:14:10.499Z,4.30
2023-02-09T04:16:38.691Z,3.83
2023-02-09T04:19:08.999Z,3.77
2023-02-09T04:21:37.584Z,3.80
2023-02-09T04:24:06.749Z,4.17
2023-02-09T04:26:36.688Z,4.03
2023-02-09T04:29:04.547Z,3.93
2023-02-09T04:31:32.506Z,3.73
2023-02-09T04:34:00.356Z,4.57
2023-02-09T04:36:28.999Z,5.10
2023-02-09T04:38:56.818Z,4.27
2023-02-09T04:41:24.606Z,4.67
2023-02-09T04:43:53.703Z,4.43
2023-02-09T04:46:21.651Z,4.47
2023-02-09T04:48:49.428Z,4.40
2023-02-09T04:51:17.562Z,3.97
2023-02-09T04:53:45.366Z,4.47
2023-02-09T04:56:15.372Z,4.73
2023-02-09T04:59:01.412Z,4.63
2023-02-09T05:01:31.361Z,3.77
2023-02-09T05:03:59.324Z,4.03
2023-02-09T05:06:27.176Z,4.43
2023-02-09T05:08:54.946Z,4.00
2023-02-09T05:11:25.294Z,5.10
2023-02-09T05:13:53.331Z,5.13
2023-02-09T05:16:21.166Z,4.03
2023-02-09T05:18:50.997Z,4.10
2023-02-09T05:21:18.843Z,4.03
2023-02-09T05:23:46.640Z,4.23
2023-02-09T05:26:14.473Z,4.17
2023-02-09T05:28:42.246Z,4.17
2023-02-09T05:31:10.120Z,3.67
2023-02-09T05:33:37.939Z,3.63
2023-02-09T05:36:09.289Z,4.23
2023-02-09T05:38:37.446Z,3.63
2023-02-09T05:41:06.469Z,4.63
2023-02-09T05:43:34.262Z,5.23
2023-02-09T05:46:02.083Z,5.67
2023-02-09T05:48:30.002Z,5.80
2023-02-09T05:50:57.820Z,8.23
2023-02-09T05:53:26.992Z,4.73
2023-02-09T05:55:54.768Z,4.60
2023-02-09T05:58:22.523Z,4.40
2023-02-09T06:00:50.296Z,4.63
2023-02-09T06:03:18.217Z,4.20
2023-02-09T06:05:46.187Z,5.10
2023-02-09T06:08:13.942Z,6.67
2023-02-09T06:10:43.156Z,5.23
2023-02-09T06:13:11.052Z,5.30
2023-02-09T06:15:38.869Z,4.90
2023-02-09T06:18:06.722Z,5.13
2023-02-09T06:20:34.517Z,5.00
2023-02-09T06:23:02.298Z,4.50
2023-02-09T06:25:30.059Z,5.47
2023-02-09T06:27:59.249Z,3.90
2023-02-09T06:30:27.044Z,5.47
2023-02-09T06:32:54.843Z,4.83
2023-02-09T06:35:22.634Z,4.57
2023-02-09T06:37:50.520Z,5.13
2023-02-09T06:40:18.458Z,6.37
2023-02-09T06:42:46.216Z,5.10
2023-02-09T06:45:17.800Z,5.10
2023-02-09T06:47:46.676Z,5.33
2023-02-09T06:50:18.537Z,5.10
2023-02-09T06:52:46.751Z,5.93
2023-02-09T06:55:14.619Z,5.77
2023-02-09T06:57:42.533Z,6.77
2023-02-09T07:00:12.819Z,5.50
2023-02-09T07:02:42.760Z,5.33
2023-02-09T07:05:10.671Z,5.47
2023-02-09T07:07:39.233Z,5.97
2023-02-09T07:10:09.173Z,6.13
2023-02-09T07:12:37.652Z,5.77
2023-02-09T07:15:07.030Z,6.50
2023-02-09T07:17:34.894Z,5.70
2023-02-09T07:20:04.656Z,5.80
2023-02-09T07:22:32.479Z,6.57
2023-02-09T07:25:00.229Z,5.10
2023-02-09T07:27:28.552Z,6.00
2023-02-09T07:29:56.323Z,5.73
2023-02-09T07:32:24.150Z,7.77
2023-02-09T07:34:51.944Z,7.30
2023-02-09T07:37:21.140Z,6.63
2023-02-09T07:39:49.017Z,6.23
2023-02-09T07:42:16.923Z,6.93
2023-02-09T07:44:44.674Z,6.27
2023-02-09T07:47:12.422Z,6.23
2023-02-09T07:49:40.260Z,6.53
2023-02-09T07:52:08.063Z,5.53
2023-02-09T07:54:37.182Z,5.93
2023-02-09T07:57:04.989Z,6.33
2023-02-09T07:59:32.747Z,6.23
2023-02-09T08:02:00.642Z,6.90
2023-02-09T08:04:28.480Z,6.70
2023-02-09T08:06:56.500Z,7.20
2023-02-09T08:09:24.262Z,6.47
2023-02-09T08:11:56.026Z,6.67
2023-02-09T08:14:29.653Z,6.40
2023-02-09T08:17:16.655Z,6.90
2023-02-09T08:19:44.863Z,6.60
2023-02-09T08:22:12.867Z,6.67
2023-02-09T08:24:41.263Z,7.00
2023-02-09T08:27:11.235Z,6.17
2023-02-09T08:29:39.036Z,6.97
2023-02-09T08:32:07.058Z,6.77
2023-02-09T08:34:34.962Z,6.37
2023-02-09T08:37:02.716Z,6.30
2023-02-09T08:39:30.640Z,7.00
2023-02-09T08:41:58.433Z,6.27
2023-02-09T08:44:27.549Z,6.27
2023-02-09T08:46:55.510Z,6.80
2023-02-09T08:49:23.299Z,6.67
2023-02-09T08:51:51.063Z,5.90
2023-02-09T08:54:18.840Z,5.87
2023-02-09T08:56:46.686Z,5.83
2023-02-09T08:59:14.467Z,5.97
2023-02-09T09:01:43.557Z,5.90
2023-02-09T09:04:11.480Z,5.40
2023-02-09T09:06:39.267Z,5.60
2023-02-09T09:09:07.169Z,5.10
2023-02-09T09:11:34.966Z,5.60
2023-02-09T09:14:02.726Z,5.37
2023-02-09T09:16:30.618Z,5.23
2023-02-09T09:19:00.037Z,5.33
2023-02-09T09:21:27.802Z,4.70
2023-02-09T09:23:55.590Z,4.40
2023-02-09T09:26:23.549Z,4.70
2023-02-09T09:28:52.097Z,5.20
2023-02-09T09:31:20.335Z,5.13
2023-02-09T09:33:48.426Z,4.90
2023-02-09T09:36:17.655Z,5.23
2023-02-09T09:38:45.493Z,4.63
2023-02-09T09:41:23.064Z,4.63
2023-02-09T09:43:51.732Z,5.07
2023-02-09T09:46:22.295Z,4.83
2023-02-09T09:48:52.274Z,4.57
2023-02-09T09:51:26.527Z,4.70
2023-02-09T09:53:57.128Z,5.20
2023-02-09T09:56:27.078Z,4.77
2023-02-09T09:58:55.319Z,4.70
2023-02-09T10:01:23.317Z,4.60
2023-02-09T10:03:51.196Z,5.57
2023-02-09T10:06:22.205Z,5.13
2023-02-09T10:08:55.631Z,5.03
2023-02-09T10:11:30.013Z,4.83
2023-02-09T10:13:58.723Z,5.13
2023-02-09T10:16:29.471Z,4.90
2023-02-09T10:19:01.951Z,4.90
2023-02-09T10:21:32.823Z,5.20
2023-02-09T10:24:13.726Z,5.57
2023-02-09T10:26:42.786Z,4.73
2023-02-09T10:29:24.315Z,5.10
2023-02-09T10:31:58.140Z,4.90
2023-02-09T10:34:32.545Z,4.40
2023-02-09T10:37:26.604Z,3.97
2023-02-09T10:40:00.872Z,4.73
2023-02-09T10:42:31.314Z,4.93
2023-02-09T10:45:05.998Z,4.67
2023-02-09T10:47:33.865Z,4.27
2023-02-09T10:50:03.664Z,5.07
2023-02-09T10:52:37.778Z,4.63
2023-02-09T10:55:17.622Z,4.47
2023-02-09T10:57:45.431Z,4.50
2023-02-09T11:00:30.581Z,4.90
2023-02-09T11:03:01.595Z,5.23
2023-02-09T11:05:33.047Z,5.77
2023-02-09T11:08:13.568Z,5.13
2023-02-09T11:10:45.760Z,5.83
2023-02-09T11:13:22.770Z,6.43
2023-02-09T11:16:09.021Z,5.87
2023-02-09T11:18:37.404Z,5.07
2023-02-09T11:21:11.746Z,5.60
2023-02-09T11:23:52.171Z,6.67
2023-02-09T11:26:31.735Z,5.60
2023-02-09T11:29:07.283Z,4.53
2023-02-09T11:31:50.036Z,5.20
2023-02-09T11:34:34.651Z,5.23
2023-02-09T11:37:16.196Z,4.90
2023-02-09T11:39:51.587Z,4.90
2023-02-09T11:42:42.585Z,5.57
2023-02-09T11:45:14.687Z,5.27
2023-02-09T11:47:51.711Z,6.67
2023-02-09T11:50:25.421Z,6.80
2023-02-09T11:52:57.118Z,5.37
2023-02-09T11:55:32.386Z,5.80
2023-02-09T11:58:10.067Z,5.20
2023-02-09T12:00:54.440Z,5.60
2023-02-09T12:03:23.966Z,5.90
2023-02-09T12:05:52.171Z,6.73
2023-02-09T12:08:43.776Z,6.30
2023-02-09T12:11:28.984Z,5.87
2023-02-09T12:14:04.410Z,7.63
2023-02-09T12:16:38.215Z,7.07
2023-02-09T12:19:20.832Z,7.57
2023-02-09T12:21:48.627Z,6.53
2023-02-09T12:24:33.556Z,6.50
2023-02-09T12:27:02.729Z,6.60
2023-02-09T12:29:39.241Z,10.03
2023-02-09T12:32:31.142Z,7.43
2023-02-09T12:35:25.365Z,8.03
2023-02-09T12:38:14.969Z,7.07
2023-02-09T12:40:42.814Z,7.70
2023-02-09T12:43:15.123Z,7.60
2023-02-09T12:45:44.331Z,7.03
2023-02-09T12:48:17.375Z,6.40
2023-02-09T12:50:53.288Z,6.20
2023-02-09T12:53:42.103Z,6.70
2023-02-09T12:56:31.423Z,8.50
2023-02-09T12:59:18.757Z,8.50
2023-02-09T13:02:25.055Z,8.83
2023-02-09T13:05:01.181Z,7.93
2023-02-09T13:07:43.742Z,6.70
2023-02-09T13:10:26.463Z,7.43
2023-02-09T13:12:59.407Z,8.83
2023-02-09T13:15:37.739Z,6.97
2023-02-09T13:18:15.052Z,7.57
2023-02-09T13:21:06.191Z,8.57
2023-02-09T13:23:36.854Z,9.33
2023-02-09T13:26:18.716Z,8.67
2023-02-09T13:28:46.566Z,8.00
2023-02-09T13:31:25.951Z,7.90
2023-02-09T13:34:00.795Z,7.63
2023-02-09T13:36:36.626Z,8.50
2023-02-09T13:39:08.155Z,7.70
2023-02-09T13:41:38.680Z,8.40
2023-02-09T13:44:23.949Z,8.93
2023-02-09T13:46:58.113Z,8.10
2023-02-09T13:49:27.637Z,9.63
2023-02-09T13:52:16.386Z,8.73
2023-02-09T13:54:44.805Z,8.90
2023-02-09T13:57:25.057Z,10.73
2023-02-09T13:59:52.851Z,9.70
2023-02-09T14:02:27.537Z,8.60
2023-02-09T14:04:58.932Z,10.20
2023-02-09T14:07:33.521Z,9.97
2023-02-09T14:10:06.344Z,9.87
2023-02-09T14:12:56.562Z,9.57
2023-02-09T14:15:49.366Z,9.57
2023-02-09T14:18:32.786Z,9.40
2023-02-09T14:21:03.111Z,8.57
2023-02-09T14:23:34.809Z,8.80
2023-02-09T14:26:06.056Z,9.33
2023-02-09T14:28:35.564Z,9.23
2023-02-09T14:31:03.585Z,8.60
2023-02-09T14:33:35.800Z,8.50
2023-02-09T14:36:04.640Z,8.13
2023-02-09T14:38:37.371Z,8.53
2023-02-09T14:41:28.321Z,8.67
2023-02-09T14:44:04.426Z,8.10
2023-02-09T14:46:49.063Z,7.80
2023-02-09T14:49:18.586Z,8.93
2023-02-09T14:51:47.785Z,8.33
2023-02-09T14:54:35.156Z,7.17
2023-02-09T14:57:03.709Z,8.37
2023-02-09T14:59:32.131Z,7.90
2023-02-09T15:01:59.913Z,8.83
2023-02-09T15:04:29.053Z,8.63
2023-02-09T15:07:04.475Z,7.77
2023-02-09T15:09:37.114Z,8.27
2023-02-09T15:12:05.843Z,8.20
2023-02-09T15:14:36.992Z,8.50
2023-02-09T15:17:12.982Z,9.53
2023-02-09T15:19:42.698Z,9.50
2023-02-09T15:22:13.523Z,9.37
2023-02-09T15:24:42.085Z,9.90
2023-02-09T15:27:23.785Z,9.87
2023-02-09T15:29:52.073Z,9.07
2023-02-09T15:32:21.914Z,9.70
2023-02-09T15:34:52.105Z,9.27
2023-02-09T15:37:23.713Z,10.30
2023-02-09T15:39:54.472Z,9.33
2023-02-09T15:42:40.020Z,10.10
2023-02-09T15:45:35.010Z,9.30
2023-02-09T15:48:02.940Z,9.03
2023-02-09T15:50:34.019Z,10.07
2023-02-09T15:53:03.924Z,9.13
2023-02-09T15:55:32.019Z,8.90
2023-02-09T15:58:00.270Z,9.10
2023-02-09T16:00:29.994Z,8.17
2023-02-09T16:03:00.302Z,8.70
2023-02-09T16:05:29.878Z,9.10
2023-02-09T16:08:00.398Z,9.47
2023-02-09T16:10:30.672Z,9.77
2023-02-09T16:12:58.558Z,9.83
2023-02-09T16:15:27.975Z,10.97
2023-02-09T16:17:55.801Z,10.53
2023-02-09T16:20:25.923Z,10.23
2023-02-09T16:22:55.539Z,9.27
2023-02-09T16:25:26.898Z,9.63
2023-02-09T16:27:56.399Z,9.73
2023-02-09T16:30:26.932Z,10.17
2023-02-09T16:32:55.628Z,9.70
2023-02-09T16:35:25.284Z,10.53
2023-02-09T16:37:55.946Z,10.27
2023-02-09T16:40:31.546Z,9.87
2023-02-09T16:43:01.193Z,9.93
2023-02-09T16:45:36.317Z,9.77
2023-02-09T16:48:04.679Z,10.93
2023-02-09T16:50:35.463Z,10.10
2023-02-09T16:53:14.241Z,9.77
2023-02-09T16:55:48.064Z,9.60
2023-02-09T16:58:18.313Z,9.10
2023-02-09T17:00:46.355Z,9.20
2023-02-09T17:03:16.970Z,11.17
2023-02-09T17:05:47.596Z,11.87
2023-02-09T17:08:19.184Z,14.50
2023-02-09T17:10:49.654Z,15.20
2023-02-09T17:13:20.450Z,19.07
2023-02-09T17:15:50.610Z,17.90
2023-02-09T17:18:21.508Z,18.33
2023-02-09T17:20:52.551Z,15.43
2023-02-09T17:23:23.600Z,15.53
2023-02-09T17:25:55.050Z,14.20
2023-02-09T17:28:23.665Z,13.83
2023-02-09T17:30:51.749Z,14.03
2023-02-09T17:33:25.332Z,16.50
2023-02-09T17:36:23.742Z,16.77
2023-02-09T17:38:41.960Z,16.90
2023-02-09T17:41:15.970Z,17.23
2023-02-09T17:43:43.996Z,16.43
2023-02-09T17:46:12.243Z,15.07
2023-02-09T17:48:40.264Z,15.67
2023-02-09T17:51:15.116Z,13.77
2023-02-09T17:53:42.868Z,12.60
2023-02-09T17:56:12.012Z,11.97
2023-02-09T17:58:39.882Z,11.70
2023-02-09T18:01:26.503Z,12.47
2023-02-09T18:03:54.767Z,12.53
2023-02-09T18:06:27.644Z,12.70
2023-02-09T18:08:55.415Z,12.77
2023-02-09T18:11:40.747Z,12.30
2023-02-09T18:14:09.682Z,13.27
2023-02-09T18:16:37.775Z,12.00
2023-02-09T18:19:05.661Z,12.80
2023-02-09T18:21:33.497Z,12.37
2023-02-09T18:24:01.272Z,11.77
2023-02-09T18:26:30.593Z,12.23
2023-02-09T18:28:58.389Z,12.50
2023-02-09T18:31:26.205Z,13.23
2023-02-09T18:33:54.194Z,14.33
2023-02-09T18:36:22.059Z,15.63
2023-02-09T18:38:51.993Z,13.37
2023-02-09T18:41:19.759Z,13.53
2023-02-09T18:43:49.797Z,14.27
2023-02-09T18:46:19.443Z,15.50
2023-02-09T18:48:47.310Z,14.23
2023-02-09T18:51:15.380Z,15.00
2023-02-09T18:53:43.293Z,14.03
2023-02-09T18:56:17.620Z,15.10
2023-02-09T18:58:45.392Z,13.77
2023-02-09T19:01:14.936Z,14.23
2023-02-09T19:03:42.828Z,18.67
2023-02-09T19:06:12.065Z,16.27
2023-02-09T19:08:40.468Z,15.83
2023-02-09T19:11:13.116Z,13.80
2023-02-09T19:13:40.908Z,14.17
2023-02-09T19:16:11.945Z,13.83
2023-02-09T19:18:41.105Z,12.73
2023-02-09T19:21:08.916Z,12.77
2023-02-09T19:23:36.715Z,12.07
2023-02-09T19:26:06.376Z,12.30
2023-02-09T19:28:34.931Z,13.23
2023-02-09T19:31:02.771Z,13.20
2023-02-09T19:33:30.519Z,15.80
2023-02-09T19:36:00.214Z,16.77
2023-02-09T19:38:28.192Z,14.80
2023-02-09T19:41:09.762Z,15.87
2023-02-09T19:43:38.556Z,16.33
2023-02-09T19:46:07.046Z,13.27
2023-02-09T19:48:34.927Z,15.80
2023-02-09T19:51:04.205Z,13.50
2023-02-09T19:53:32.002Z,14.23
2023-02-09T19:55:59.754Z,16.00
2023-02-09T19:58:27.521Z,12.40
2023-02-09T20:00:55.981Z,13.27
2023-02-09T20:03:24.040Z,11.83
2023-02-09T20:05:52.640Z,13.97
2023-02-09T20:08:21.744Z,14.40
2023-02-09T20:10:49.860Z,14.03
2023-02-09T20:13:17.775Z,14.93
2023-02-09T20:15:46.104Z,14.00
2023-02-09T20:18:16.039Z,13.80
2023-02-09T20:20:45.783Z,12.30
2023-02-09T20:23:15.387Z,13.67
2023-02-09T20:25:45.004Z,14.00
2023-02-09T20:28:13.569Z,14.80
2023-02-09T20:30:42.395Z,13.97
2023-02-09T20:33:10.779Z,13.83
2023-02-09T20:35:40.498Z,14.83
2023-02-09T20:38:08.827Z,15.30
2023-02-09T20:40:37.252Z,15.53
2023-02-09T20:43:23.652Z,16.67
2023-02-09T20:46:09.249Z,15.23
2023-02-09T20:48:37.150Z,16.67
2023-02-09T20:51:05.266Z,16.47
2023-02-09T20:53:33.422Z,19.63
2023-02-09T20:56:01.195Z,20.63
2023-02-09T20:58:30.354Z,19.10
2023-02-09T21:00:58.134Z,18.87
2023-02-09T21:03:25.992Z,18.43
2023-02-09T21:05:53.753Z,16.17
2023-02-09T21:08:22.831Z,15.17
2023-02-09T21:10:56.165Z,16.83
2023-02-09T21:13:24.120Z,14.90
2023-02-09T21:15:53.245Z,16.07
2023-02-09T21:18:21.891Z,15.00
2023-02-09T21:20:50.068Z,14.73
2023-02-09T21:23:18.150Z,14.40
2023-02-09T21:25:46.068Z,14.53
2023-02-09T21:28:14.978Z,14.97
2023-02-09T21:30:43.523Z,16.07
2023-02-09T21:33:12.716Z,15.63
2023-02-09T21:35:41.527Z,15.33
2023-02-09T21:38:09.268Z,16.50
2023-02-09T21:40:37.042Z,15.03
2023-02-09T21:43:04.839Z,15.13
2023-02-09T21:45:32.741Z,14.47
2023-02-09T21:48:01.006Z,14.57
2023-02-09T21:50:30.243Z,15.60
2023-02-09T21:52:59.318Z,16.00
2023-02-09T21:55:27.097Z,14.67
2023-02-09T21:57:54.886Z,16.23
2023-02-09T22:00:22.645Z,15.77
2023-02-09T22:02:53.211Z,16.90
2023-02-09T22:05:21.154Z,17.03
2023-02-09T22:07:50.613Z,14.60
2023-02-09T22:10:18.903Z,15.30
2023-02-09T22:12:47.117Z,14.97
2023-02-09T22:15:15.054Z,15.50
2023-02-09T22:17:42.847Z,16.67
2023-02-09T22:20:11.854Z,16.43
2023-02-09T22:22:40.320Z,15.57
2023-02-09T22:25:09.834Z,15.50
2023-02-09T22:27:37.611Z,15.33
2023-02-09T22:30:05.720Z,15.23
2023-02-09T22:32:33.515Z,15.13
2023-02-09T22:35:01.270Z,16.10
2023-02-09T22:37:29.038Z,16.60
2023-02-09T22:39:56.830Z,17.27
2023-02-09T22:42:25.938Z,15.70
2023-02-09T22:44:53.711Z,15.77
2023-02-09T22:47:21.502Z,16.73
2023-02-09T22:49:49.270Z,16.67
2023-02-09T22:52:17.053Z,16.90
2023-02-09T22:54:44.823Z,16.43
2023-02-09T22:57:12.641Z,16.07
2023-02-09T22:59:41.777Z,15.33
2023-02-09T23:02:11.529Z,16.30
2023-02-09T23:04:40.322Z,15.70
2023-02-09T23:07:08.105Z,16.63
2023-02-09T23:09:35.886Z,14.83
2023-02-09T23:12:03.695Z,15.87
2023-02-09T23:14:31.438Z,14.33
2023-02-09T23:17:00.553Z,14.93
2023-02-09T23:19:28.353Z,14.93
2023-02-09T23:21:56.608Z,15.93
2023-02-09T23:24:24.865Z,15.80
2023-02-09T23:26:53.093Z,17.00
2023-02-09T23:29:21.345Z,16.33
2023-02-09T23:31:49.406Z,14.97
2023-02-09T23:34:21.909Z,14.03
2023-02-09T23:36:49.841Z,15.80
2023-02-09T23:39:19.911Z,14.33
2023-02-09T23:41:47.818Z,14.40
2023-02-09T23:44:15.588Z,16.23
2023-02-09T23:46:44.552Z,15.67
2023-02-09T23:49:12.631Z,16.27
2023-02-09T23:51:41.813Z,14.73
2023-02-09T23:54:11.233Z,14.40
2023-02-09T23:56:39.054Z,14.53
2023-02-09T23:59:08.688Z,15.13
